Latest Weather Observations for Jandakot

IDW60901

Issued at 4:01 pm WST Monday 25 September 2017 (issued every 10 minutes, with the page automatically refreshed every 10 minutes)

About weather observations | Map of Perth area stations | Latest observations for Perth area | Other Formats
Station Details ID: 009172 Name: JANDAKOT AERO Lat: -32.10 Lon: 115.88 Height: 30.0 m
Data from the previous 72 hours. | See also: Recent months at Jandakot
Date/Time
WST
Temp
°C
App
Temp
°C
Dew
Point
°C
Rel
Hum
%
Delta-T
°C
Wind Press
QNH
hPa
Press
MSL
hPa
Rain since
9am
mm
Dir  Spd
km/h
Gust
km/h
Spd
kts
Gust
kts
25/04:00pm 13.7 11.0 9.0 73 2.4 SW 13 20 7 11 1004.2 1004.1 0.8
25/03:30pm 14.7 9.8 8.6 67 3.1 SSW 24 33 13 18 1004.1 1004.0 0.8
25/03:00pm 15.1 12.1 9.1 67 3.1 SW 15 19 8 10 1003.8 1003.7 0.8
25/02:30pm 13.3 11.3 10.0 80 1.7 SSW 11 15 6 8 1003.7 1003.6 0.8
25/02:00pm 14.0 11.3 10.4 79 1.9 S 15 19 8 10 1003.7 1003.6 0.6
25/01:30pm 14.0 10.1 8.7 70 2.7 SW 19 28 10 15 1003.7 1003.6 0.4
25/01:00pm 14.6 13.0 7.8 63 3.4 SSW 6 15 3 8 1003.5 1003.4 0.4
25/12:30pm 14.1 11.2 8.3 68 2.9 NE 13 17 7 9 1003.7 1003.6 0.4
25/12:00pm 13.3 10.9 8.7 73 2.3 NE 11 19 6 10 1004.1 1004.0 0.4
25/11:30am 12.9 10.9 8.5 74 2.2 E 9 11 5 6 1004.1 1004.0 0.4
25/11:00am 12.1 10.2 8.9 81 1.6 SE 9 11 5 6 1004.1 1004.0 0.4
25/10:30am 11.6 10.1 9.0 84 1.3 E 7 11 4 6 1004.2 1004.1 0.4
25/10:00am 11.3 8.2 8.9 85 1.2 ENE 15 20 8 11 1003.9 1003.8 0.2
25/09:30am 10.7 7.3 9.1 90 0.8 NE 17 24 9 13 1004.0 1003.9 0.2
25/09:00am 10.0 6.1 8.8 92 0.6 NE 19 24 10 13 1003.9 1003.8 41.2
25/08:30am 9.8 5.3 8.6 92 0.6 NE 22 28 12 15 1003.8 1003.7 40.6
25/08:00am 9.7 5.2 8.7 93 0.5 NE 22 28 12 15 1003.7 1003.6 40.4
25/07:30am 9.4 5.0 8.8 96 0.3 NE 22 26 12 14 1003.6 1003.5 40.2
25/07:00am 9.4 5.3 8.8 96 0.3 NE 20 24 11 13 1003.5 1003.4 39.2
25/06:34am 9.4 6.0 9.0 97 0.2 NE 17 22 9 12 1003.5 1003.4 37.0
25/06:30am 9.5 6.0 8.9 96 0.3 NE 17 22 9 12 1003.5 1003.4 36.8
25/06:07am 9.6 6.9 8.8 95 0.4 NE 13 17 7 9 1003.4 1003.3 34.0
25/06:03am 9.6 6.9 8.8 95 0.4 ENE 13 17 7 9 1003.4 1003.3 33.2
25/06:00am 9.6 6.9 8.8 95 0.4 ENE 13 17 7 9 1003.4 1003.3 32.0
25/05:30am 9.7 6.9 8.7 93 0.5 ENE 13 17 7 9 1003.2 1003.1 30.4
25/05:18am 9.6 6.5 8.8 95 0.4 ENE 15 24 8 13 1003.1 1003.0 30.4
25/05:00am 9.6 7.6 8.8 95 0.4 ENE 9 15 5 8 1003.2 1003.1 29.0
25/04:44am 9.6 7.6 8.8 95 0.4 E 9 13 5 7 1003.1 1003.0 26.0
25/04:31am 9.6 7.2 8.8 95 0.4 E 11 17 6 9 1002.8 1002.7 24.8
25/04:30am 9.6 7.2 8.8 95 0.4 E 11 17 6 9 1002.8 1002.7 24.8
25/04:00am 9.6 6.1 8.6 93 0.5 NE 17 24 9 13 1002.8 1002.7 23.2
25/03:30am 9.4 5.4 8.4 93 0.5 NE 19 26 10 14 1002.4 1002.3 21.4
25/03:00am 9.4 4.9 8.6 95 0.4 NNE 22 28 12 15 1002.7 1002.6 20.8
25/02:30am 9.6 5.5 8.6 93 0.5 NNE 20 26 11 14 1002.8 1002.7 19.6
25/02:00am 9.8 6.7 9.0 95 0.4 NNE 15 19 8 10 1002.8 1002.7 19.2
25/01:30am 9.7 5.8 8.7 93 0.5 NNE 19 22 10 12 1003.1 1003.0 19.2
25/01:00am 10.0 6.0 9.0 93 0.5 NE 20 30 11 16 1003.3 1003.2 19.2
25/12:30am 10.1 6.2 9.3 95 0.4 NNE 20 26 11 14 1003.7 1003.6 18.8
25/12:00am 10.1 7.1 9.1 93 0.5 NNE 15 22 8 12 1003.6 1003.5 17.4
 
Date/Time
WST
Temp
°C
App
Temp
°C
Dew
Point
°C
Rel
Hum
%
Delta-T
°C
Wind Press
QNH
hPa
Press
MSL
hPa
Rain since
9am
mm
Dir  Spd
km/h
Gust
km/h
Spd
kts
Gust
kts
24/11:30pm 10.0 7.4 9.2 95 0.4 NE 13 20 7 11 1003.9 1003.8 17.4
24/11:00pm 9.4 7.0 8.6 95 0.4 NE 11 15 6 8 1004.1 1004.0 17.2
24/10:30pm 8.6 6.4 7.8 95 0.4 NE 9 11 5 6 1004.4 1004.3 17.2
24/10:00pm 9.5 6.4 8.7 95 0.4 NNE 15 19 8 10 1004.6 1004.5 17.2
24/09:30pm 9.5 6.7 8.7 95 0.4 NE 13 15 7 8 1005.0 1004.9 17.2
24/09:00pm 9.6 7.2 8.8 95 0.4 ENE 11 13 6 7 1004.9 1004.8 17.2
24/08:30pm 10.0 8.1 9.0 93 0.5 ESE 9 13 5 7 1005.1 1005.0 16.8
24/08:00pm 9.8 8.2 8.6 92 0.6 ENE 7 11 4 6 1005.2 1005.1 15.8
24/07:30pm 10.0 8.5 8.4 90 0.8 WSW 6 7 3 4 1005.1 1005.0 15.8
24/07:00pm 10.4 6.2 8.1 86 1.1 W 20 30 11 16 1004.9 1004.8 15.8
24/06:48pm 10.8 3.3 7.9 82 1.4 WNW 37 54 20 29 1005.0 1004.9 15.6
24/06:40pm 12.2 6.9 7.0 70 2.5 WNW 24 52 13 28 1005.1 1005.0 14.6
24/06:30pm 13.6 11.4 8.0 69 2.8 NW 9 15 5 8 1004.6 1004.5 14.2
24/06:00pm 13.8 10.8 7.8 67 3.0 WNW 13 17 7 9 1004.7 1004.6 14.2
24/05:30pm 14.5 11.2 7.9 64 3.3 W 15 24 8 13 1004.6 1004.5 14.2
24/05:00pm 14.2 13.0 9.6 74 2.4 N 6 9 3 5 1004.4 1004.3 14.2
24/04:30pm 13.6 12.3 9.3 75 2.2 SSW 6 11 3 6 1004.5 1004.4 14.2
24/04:00pm 13.4 11.3 11.3 87 1.1 WSW 13 17 7 9 1004.5 1004.4 14.2
24/03:44pm 12.6 10.2 11.3 92 0.7 W 15 20 8 11 1004.7 1004.6 14.2
24/03:30pm 11.6 7.9 10.2 91 0.7 W 20 32 11 17 1004.8 1004.7 14.2
24/03:21pm 11.4 6.9 8.6 83 1.4 NNW 22 57 12 31 1005.1 1005.0 10.0
24/03:20pm 11.6 7.6 9.0 84 1.3 N 20 57 11 31 1005.1 1005.0 8.4
24/03:00pm 14.1 11.6 11.1 82 1.6 ENE 15 20 8 11 1003.9 1003.8 7.4
24/02:30pm 13.1 12.6 10.8 86 1.2 NE 4 9 2 5 1004.6 1004.5 7.2
24/02:09pm 12.7 12.2 10.8 88 1.0 SW 4 7 2 4 1005.0 1004.9 7.2
24/02:00pm 12.2 12.4 10.7 90 0.8 CALM 0 0 0 0 1005.1 1005.0 7.2
24/01:46pm 11.9 10.9 10.4 90 0.8 NW 6 9 3 5 1005.4 1005.3 6.4
24/01:30pm 12.4 10.2 10.7 89 0.9 WNW 13 17 7 9 1005.6 1005.5 5.0
24/01:00pm 12.2 9.5 10.3 88 1.0 NW 15 19 8 10 1006.1 1006.0 4.2
24/12:55pm 12.2 9.0 9.9 86 1.2 NW 17 28 9 15 1006.2 1006.1 3.8
24/12:40pm 12.1 6.4 8.5 78 1.8 NNW 28 39 15 21 1006.1 1006.0 2.4
24/12:30pm 14.2 10.2 9.1 71 2.6 N 20 35 11 19 1005.9 1005.8 0.0
24/12:00pm 15.9 13.0 8.2 60 3.9 N 13 17 7 9 1005.8 1005.7 0.0
24/11:30am 16.1 12.4 6.3 52 4.8 NNW 15 20 8 11 1006.2 1006.1 0.0
24/11:00am 16.3 13.3 9.2 63 3.7 N 15 20 8 11 1006.5 1006.4 0.0
24/10:30am 16.1 13.3 8.7 61 3.8 N 13 20 7 11 1007.2 1007.2 0.0
24/10:00am 15.2 12.3 9.8 70 2.8 NNE 15 20 8 11 1007.5 1007.5 0.0
24/09:30am 14.7 12.1 10.7 77 2.1 NE 15 22 8 12 1007.8 1007.8 0.0
24/09:06am 14.2 11.6 10.6 79 1.9 NE 15 20 8 11 1008.1 1008.1 0.0
24/09:00am 13.9 10.9 10.7 81 1.7 NE 17 20 9 11 1008.1 1008.1 9.6
24/08:30am 13.1 10.1 10.8 86 1.2 NNE 17 20 9 11 1008.3 1008.3 9.6
24/08:20am 12.7 9.7 10.8 88 1.0 NNE 17 20 9 11 1008.2 1008.2 9.6
24/08:00am 12.3 10.6 11.2 93 0.6 NE 11 19 6 10 1008.2 1008.2 9.6
24/07:30am 10.8 9.8 10.4 97 0.2 E 6 9 3 5 1008.3 1008.3 9.6
24/07:00am 9.7 8.4 9.3 97 0.2 SE 6 9 3 5 1008.1 1008.1 9.6
24/06:41am 9.8 8.0 9.4 97 0.2 SE 9 11 5 6 1008.1 1008.1 9.6
24/06:30am 9.8 8.0 9.4 97 0.2 SE 9 11 5 6 1008.1 1008.1 9.6
24/06:15am 9.6 7.7 9.2 97 0.2 SE 9 11 5 6 1008.2 1008.2 9.6
24/06:00am 9.8 8.0 9.4 97 0.2 E 9 11 5 6 1008.1 1008.1 9.6
24/05:30am 10.2 8.5 9.8 97 0.2 ENE 9 13 5 7 1008.2 1008.2 9.4
24/05:00am 10.3 8.6 9.7 96 0.3 NE 9 13 5 7 1008.3 1008.3 7.4
24/04:30am 10.2 8.4 9.6 96 0.3 NE 9 11 5 6 1008.4 1008.4 4.2
24/04:00am 10.3 8.1 9.3 93 0.5 NNE 11 13 6 7 1008.6 1008.6 2.2
24/03:30am 9.9 7.6 8.9 93 0.5 NE 11 13 6 7 1008.4 1008.4 1.4
24/03:00am 9.9 7.2 9.1 95 0.4 NE 13 15 7 8 1008.7 1008.7 1.4
24/02:30am 10.4 7.8 9.4 93 0.5 NE 13 15 7 8 1009.1 1009.1 1.4
24/02:00am 10.6 9.1 9.2 91 0.7 NE 7 9 4 5 1009.6 1009.6 1.4
24/01:30am 10.7 8.5 9.5 92 0.6 NNE 11 13 6 7 1009.9 1009.9 1.4
24/01:00am 10.7 8.5 9.3 91 0.7 ENE 11 13 6 7 1010.2 1010.2 1.4
24/12:30am 10.7 8.5 9.3 91 0.7 NE 11 13 6 7 1010.4 1010.4 1.4
24/12:00am 11.4 8.3 8.8 84 1.3 N 15 19 8 10 1010.9 1010.9 1.0
 
Date/Time
WST
Temp
°C
App
Temp
°C
Dew
Point
°C
Rel
Hum
%
Delta-T
°C
Wind Press
QNH
hPa
Press
MSL
hPa
Rain since
9am
mm
Dir  Spd
km/h
Gust
km/h
Spd
kts
Gust
kts
23/11:30pm 11.8 10.3 8.6 81 1.6 S 6 9 3 5 1011.1 1011.1 0.8
23/11:00pm 11.9 10.2 8.5 80 1.7 E 7 11 4 6 1011.4 1011.4 0.8
23/10:30pm 12.0 9.9 8.4 78 1.8 ESE 9 13 5 7 1011.7 1011.7 0.8
23/10:00pm 11.8 9.7 8.1 78 1.8 E 9 11 5 6 1011.8 1011.8 0.8
23/09:30pm 12.1 10.8 9.1 82 1.5 ESE 6 6 3 3 1012.2 1012.2 0.8
23/09:00pm 12.2 11.9 8.8 80 1.7 CALM 0 0 0 0 1012.5 1012.5 0.8
23/08:30pm 12.3 12.1 8.9 80 1.7 CALM 0 0 0 0 1012.7 1012.7 0.8
23/08:00pm 12.9 12.4 7.8 71 2.5 CALM 0 0 0 0 1012.7 1012.7 0.8
23/07:30pm 13.6 11.8 7.3 65 3.1 SW 6 7 3 4 1012.7 1012.7 0.8
23/07:00pm 13.7 11.7 7.1 64 3.2 SW 7 7 4 4 1012.8 1012.8 0.8
23/06:30pm 13.9 11.3 5.9 58 3.8 SW 9 11 5 6 1012.9 1012.9 0.8
23/06:00pm 14.2 10.6 5.0 54 4.3 SW 13 19 7 10 1012.9 1012.9 0.8
23/05:30pm 14.7 10.6 4.1 49 4.9 SW 15 20 8 11 1013.0 1013.0 0.8
23/05:00pm 15.1 10.2 4.1 47 5.1 WSW 19 24 10 13 1013.0 1013.0 0.8
23/04:30pm 15.3 10.3 3.8 46 5.3 WSW 19 26 10 14 1013.0 1013.0 0.8
23/04:00pm 15.7 10.6 4.1 46 5.4 WSW 20 28 11 15 1012.7 1012.7 0.8
23/03:30pm 15.8 10.4 4.5 47 5.3 WSW 22 30 12 16 1012.4 1012.4 0.8
23/03:00pm 15.9 10.8 6.0 52 4.8 WSW 22 30 12 16 1012.5 1012.5 0.8
23/02:30pm 16.3 11.5 5.7 49 5.1 WSW 20 32 11 17 1012.5 1012.5 0.8
23/02:00pm 16.2 11.1 6.1 51 4.9 SW 22 28 12 15 1012.6 1012.6 0.8
23/01:30pm 15.3 9.3 5.4 51 4.7 SW 26 33 14 18 1012.7 1012.7 0.8
23/01:00pm 15.6 9.7 7.6 59 4.0 SW 28 37 15 20 1012.8 1012.8 0.8
23/12:30pm 15.3 9.7 7.0 57 4.1 WSW 26 39 14 21 1013.1 1013.1 0.8
23/12:00pm 16.0 10.8 7.4 56 4.3 SW 24 37 13 20 1013.0 1013.0 0.8
23/11:30am 15.8 11.3 7.1 56 4.3 SW 20 30 11 16 1013.3 1013.3 0.8
23/11:00am 15.3 11.9 9.1 66 3.2 SW 17 26 9 14 1013.5 1013.5 0.8
23/10:30am 14.2 9.0 10.2 77 2.1 SW 28 41 15 22 1013.4 1013.4 0.8
23/10:13am 13.3 9.2 10.0 80 1.7 SW 22 30 12 16 1013.6 1013.6 0.8
23/10:01am 12.5 5.7 9.3 81 1.6 SW 35 54 19 29 1013.8 1013.8 0.8
23/10:00am 12.4 5.6 9.2 81 1.6 SW 35 54 19 29 1013.7 1013.7 0.8
23/09:58am 12.8 6.1 9.5 80 1.7 WSW 35 54 19 29 1013.8 1013.8 0.8
23/09:53am 14.3 8.6 8.5 68 2.9 SW 28 54 15 29 1013.6 1013.6 0.2
23/09:30am 14.4 11.5 9.8 74 2.4 SW 15 20 8 11 1013.2 1013.2 0.0
23/09:00am 12.8 8.1 10.5 86 1.2 SW 26 41 14 22 1013.4 1013.4 6.6
23/08:30am 13.5 11.4 9.6 77 2.0 WSW 11 30 6 16 1012.9 1012.9 6.6
23/08:00am 12.2 8.1 10.1 87 1.1 WSW 22 35 12 19 1012.7 1012.7 6.6
23/07:30am 11.9 7.4 9.9 87 1.0 SW 24 46 13 25 1012.3 1012.3 6.4
23/07:00am 12.5 9.7 8.7 77 1.9 SW 13 20 7 11 1011.6 1011.6 5.2
23/06:30am 11.9 7.2 9.3 84 1.3 SW 24 33 13 18 1011.5 1011.5 5.2
23/06:00am 12.4 7.4 8.1 75 2.1 SW 24 35 13 19 1011.3 1011.3 5.0
23/05:30am 12.0 7.6 9.0 82 1.5 WSW 22 35 12 19 1011.1 1011.1 5.0
23/05:00am 11.7 7.0 9.3 85 1.2 WSW 24 39 13 21 1011.2 1011.2 4.8
23/04:30am 13.0 8.7 5.3 59 3.6 W 17 22 9 12 1010.7 1010.7 4.2
23/04:00am 13.2 8.0 5.3 58 3.7 WSW 22 32 12 17 1010.7 1010.7 4.2
23/03:30am 13.6 8.8 4.5 54 4.2 WSW 19 26 10 14 1010.5 1010.5 4.2
23/03:00am 13.5 6.3 3.2 49 4.6 WSW 30 43 16 23 1010.6 1010.6 4.2
23/02:30am 13.7 7.7 5.4 57 3.9 SW 26 33 14 18 1010.9 1010.9 4.2
23/02:00am 13.9 6.7 3.2 48 4.8 WSW 30 41 16 22 1010.8 1010.8 4.2
23/01:47am 13.8 7.1 5.8 58 3.8 WSW 30 48 16 26 1010.9 1010.9 4.2
23/01:30am 13.7 7.6 4.6 54 4.2 WSW 26 35 14 19 1010.9 1010.9 4.2
23/01:00am 13.9 7.1 4.9 54 4.2 WSW 30 41 16 22 1011.0 1011.0 4.2
23/12:30am 14.2 7.9 5.5 56 4.1 WSW 28 39 15 21 1011.0 1011.0 4.2
23/12:00am 13.8 8.2 7.0 63 3.3 WSW 26 39 14 21 1011.0 1011.0 4.2
 
Date/Time
WST
Temp
°C
App
Temp
°C
Dew
Point
°C
Rel
Hum
%
Delta-T
°C
Wind Press
QNH
hPa
Press
MSL
hPa
Rain since
9am
mm
Dir  Spd
km/h
Gust
km/h
Spd
kts
Gust
kts
22/11:35pm 13.9 8.1 8.1 68 2.9 WSW 28 48 15 26 1010.9 1010.9 4.2
22/11:30pm 14.4 8.7 6.8 60 3.7 WSW 26 37 14 20 1010.9 1010.9 4.2
22/11:00pm 14.3 8.6 6.7 60 3.7 WSW 26 37 14 20 1010.7 1010.7 4.2
22/10:30pm 14.4 8.7 8.4 67 3.0 WSW 28 43 15 23 1010.6 1010.6 4.2
22/10:00pm 13.7 8.3 9.4 75 2.2 WSW 28 41 15 22 1010.6 1010.6 4.2
22/09:30pm 14.5 9.0 7.4 62 3.5 WSW 26 37 14 20 1010.4 1010.4 4.2
22/09:00pm 14.6 9.3 8.5 67 3.1 WSW 26 41 14 22 1010.3 1010.3 4.2
22/08:30pm 14.5 9.0 7.4 62 3.5 WSW 26 39 14 21 1010.0 1010.0 4.2
22/08:00pm 14.5 9.1 7.9 64 3.3 WSW 26 32 14 17 1009.7 1009.7 4.2
22/07:30pm 14.8 9.3 9.1 68 2.9 WSW 28 39 15 21 1009.0 1009.0 4.2
22/07:00pm 14.1 9.9 11.1 82 1.6 WSW 24 35 13 19 1008.6 1008.6 4.2
22/06:55pm 14.1 9.1 11.1 82 1.6 W 28 37 15 20 1008.6 1008.6 4.2
22/06:39pm 13.7 8.0 11.1 84 1.4 WSW 32 56 17 30 1008.3 1008.3 4.2
22/06:37pm 13.8 8.4 10.8 82 1.6 WSW 30 56 16 30 1008.1 1008.1 4.0
22/06:36pm 13.9 8.9 10.9 82 1.6 WSW 28 52 15 28 1008.3 1008.3 4.0
22/06:31pm 14.3 9.1 10.3 77 2.1 WSW 28 46 15 25 1008.2 1008.2 2.6
22/06:30pm 14.4 8.8 10.2 76 2.2 WSW 30 46 16 25 1008.1 1008.1 2.6
22/06:00pm 15.1 9.0 9.7 70 2.8 W 32 46 17 25 1008.1 1008.1 2.6
22/05:30pm 15.9 8.0 8.0 59 4.0 W 39 52 21 28 1007.3 1007.3 2.2
22/05:01pm 16.6 7.9 5.9 49 5.2 W 41 59 22 32 1006.7 1006.6 2.2
22/05:00pm 16.7 8.3 5.8 48 5.3 W 39 54 21 29 1006.8 1006.7 2.2
22/04:30pm 16.5 8.4 8.7 60 4.0 W 41 59 22 32 1006.3 1006.2 2.2
22/04:05pm 17.3 8.7 8.1 54 4.7 W 43 61 23 33 1005.5 1005.4 2.2

Latest Capital City Observations: Canberra | Sydney | Melbourne | Brisbane | Adelaide | Perth | Hobart | Darwin

Other Formats:

Comma delimited format used in spreadsheet applications
http://www.bom.gov.au/fwo/IDW60901/IDW60901.94609.axf

JavaScript Object Notation format (JSON) in row-major order
http://www.bom.gov.au/fwo/IDW60901/IDW60901.94609.json